Record high temperature 37.4°C Record low temperature -14.6°C Record high gust 68.5 km/h Record high average 47.2 km/h Record daily rain 55.3 mm Record low windchill -17.5°C Record high barometer 1045.0 hPa Record low barometer 972.0 hPa
Daily high pressure 1012.0 hPa Daily low pressure 1011.0 hPa Daily low windchill 16.3°C Daily high heat index 17.3°C Daily high gust speed 10.4 kmh NNE Daily high average speed 8.7 kmh NNE

This page is updated from recent data collected by a WMR200 weather station Use the Reload or Refresh facility on your browser to retrieve the latest data.

Status report of weather station: Bienvenue sur la Station Météo de Godarville



Weather report/warning/Metars

Alexandroupoli Airport , Greece (LGAL) 40-51N 025-55E 3M
Jun 26, 2017 - 07:20 PM EDT / 2017.06.26 2320 UTC
Wind: Variable at 3 MPH (3 KT):0
Visibility: greater than 7 mile(s):0
Sky conditions: mostly clear
Temperature: 71 F (22 C)
Dew Point: 64 F (18 C)
Relative Humidity: 78%
Pressure (altimeter): 29.83 in. Hg (1010 hPa)
ob: LGAL 262320Z VRB03KT 9999 FEW025 22/18 Q1010
cycle: 23

Charleroi / Gosselies, Belgium (EBCI) 50-28N 004-27E 192M
Jun 26, 2017 - 07:20 PM EDT / 2017.06.26 2320 UTC
Wind: from the NE (040 degrees) at 10 MPH (9 KT):0
Visibility: greater than 7 mile(s):0
Temperature: 60 F (16 C)
Dew Point: 46 F (8 C)
Relative Humidity: 58%
Pressure (altimeter): 29.88 in. Hg (1012 hPa)
ob: EBCI 262320Z 04009KT CAVOK 16/08 Q1012 NOSIG
cycle: 23

Bruxelles National, Belgium (EBBR) 50-54N 004-32E 58M
Jun 26, 2017 - 07:20 PM EDT / 2017.06.26 2320 UTC
Wind: from the NE (040 degrees) at 6 MPH (5 KT):0
Visibility: greater than 7 mile(s):0
Temperature: 55 F (13 C)
Dew Point: 50 F (10 C)
Relative Humidity: 81%
Pressure (altimeter): 29.91 in. Hg (1013 hPa)
ob: EBBR 262320Z 04005KT CAVOK 13/10 Q1013 NOSIG
cycle: 23

Koksijde, Belgium (EBFN) 51-05N 002-39E 9M
Jun 26, 2017 - 07:25 PM EDT / 2017.06.26 2325 UTC
Wind: from the ENE (070 degrees) at 5 MPH (4 KT):0
Visibility: greater than 7 mile(s):0
Temperature: 53 F (12 C)
Dew Point: 46 F (8 C)
Relative Humidity: 76%
Pressure (altimeter): 29.91 in. Hg (1013 hPa)
ob: EBFN 262325Z AUTO 07004KT 9999 NCD 12/08 Q1013 BLU
cycle: 23

Poznan, Poland (EPPO) 52-25N 016-50E 92M
Jun 26, 2017 - 07:30 PM EDT / 2017.06.26 2330 UTC
Wind: Calm:0
Visibility: greater than 7 mile(s):0
Temperature: 50 F (10 C)
Dew Point: 48 F (9 C)
Relative Humidity: 93%
Pressure (altimeter): 29.91 in. Hg (1013 hPa)
ob: EPPO 262330Z 00000KT CAVOK 10/09 Q1013 
cycle: 23



Coucher du Soleil:
21:58:43

Lever de Lune:
08:28:14 26/06/17

Coucher de Lune:
23:37:50 26/06/17

Premier Quartier 1 juillet 2017
Pleine Lune 9 juillet 2017
Dernier Quartier 16 juillet 2017
Nouvelle Lune 23 juillet 2017
Âge de lune : 3 jours,4 heures,48 minutes,11%
Les heures du jour possible étaient aujourd’hui 16:26



Use the RELOAD facility on your browser to retrieve the latest data.

Click here for a daily update of the averages/extremes to date for the month
Created by "Weather Display" software version 10.37P at this start time/date 07:13:18 26/06/2017